sensor_id;sensor_type;location;lat;lon;timestamp;P1;durP1;ratioP1;P2;durP2;ratioP2
31482;SDS011;18103;52.246;8.052;2023-07-16T00:01:21;4.00;;;1.90;;
31482;SDS011;18103;52.246;8.052;2023-07-16T00:03:46;5.67;;;1.97;;
31482;SDS011;18103;52.246;8.052;2023-07-16T00:06:11;6.83;;;1.90;;
31482;SDS011;18103;52.246;8.052;2023-07-16T00:08:37;6.47;;;2.33;;
31482;SDS011;18103;52.246;8.052;2023-07-16T00:11:05;6.93;;;2.40;;
31482;SDS011;18103;52.246;8.052;2023-07-16T00:13:30;4.37;;;1.97;;
31482;SDS011;18103;52.246;8.052;2023-07-16T00:15:58;5.07;;;1.73;;
31482;SDS011;18103;52.246;8.052;2023-07-16T00:18:23;7.63;;;1.80;;
31482;SDS011;18103;52.246;8.052;2023-07-16T00:20:51;5.40;;;1.93;;
31482;SDS011;18103;52.246;8.052;2023-07-16T00:23:22;3.93;;;1.77;;
31482;SDS011;18103;52.246;8.052;2023-07-16T00:25:49;2.57;;;1.57;;
31482;SDS011;18103;52.246;8.052;2023-07-16T00:28:17;5.73;;;1.80;;
31482;SDS011;18103;52.246;8.052;2023-07-16T00:30:48;3.30;;;1.70;;
31482;SDS011;18103;52.246;8.052;2023-07-16T00:33:13;3.40;;;2.10;;
31482;SDS011;18103;52.246;8.052;2023-07-16T00:35:38;4.43;;;1.87;;
31482;SDS011;18103;52.246;8.052;2023-07-16T00:38:11;4.43;;;2.10;;
31482;SDS011;18103;52.246;8.052;2023-07-16T00:40:36;6.77;;;1.93;;
31482;SDS011;18103;52.246;8.052;2023-07-16T00:43:01;3.73;;;1.80;;
31482;SDS011;18103;52.246;8.052;2023-07-16T00:45:32;6.03;;;2.70;;
31482;SDS011;18103;52.246;8.052;2023-07-16T00:47:57;6.37;;;2.63;;
31482;SDS011;18103;52.246;8.052;2023-07-16T00:50:30;6.10;;;2.07;;
31482;SDS011;18103;52.246;8.052;2023-07-16T00:53:02;8.07;;;2.27;;
31482;SDS011;18103;52.246;8.052;2023-07-16T00:55:30;8.13;;;2.20;;
31482;SDS011;18103;52.246;8.052;2023-07-16T00:58:00;4.57;;;1.93;;
31482;SDS011;18103;52.246;8.052;2023-07-16T01:00:35;7.47;;;2.47;;
31482;SDS011;18103;52.246;8.052;2023-07-16T01:03:05;6.67;;;2.30;;
31482;SDS011;18103;52.246;8.052;2023-07-16T01:08:30;4.27;;;1.97;;
31482;SDS011;18103;52.246;8.052;2023-07-16T01:11:01;6.30;;;1.97;;
31482;SDS011;18103;52.246;8.052;2023-07-16T01:13:27;4.23;;;1.83;;
31482;SDS011;18103;52.246;8.052;2023-07-16T01:15:53;4.97;;;1.83;;
31482;SDS011;18103;52.246;8.052;2023-07-16T01:18:19;2.23;;;1.47;;
31482;SDS011;18103;52.246;8.052;2023-07-16T01:20:46;2.33;;;1.73;;
31482;SDS011;18103;52.246;8.052;2023-07-16T01:23:26;3.40;;;1.80;;
31482;SDS011;18103;52.246;8.052;2023-07-16T01:31:29;3.97;;;1.60;;
31482;SDS011;18103;52.246;8.052;2023-07-16T01:33:55;8.77;;;1.70;;
31482;SDS011;18103;52.246;8.052;2023-07-16T01:36:21;5.20;;;1.80;;
31482;SDS011;18103;52.246;8.052;2023-07-16T01:38:50;3.00;;;1.50;;
31482;SDS011;18103;52.246;8.052;2023-07-16T01:41:16;3.80;;;1.83;;
31482;SDS011;18103;52.246;8.052;2023-07-16T01:43:42;4.50;;;1.83;;
31482;SDS011;18103;52.246;8.052;2023-07-16T01:46:10;3.60;;;1.57;;
31482;SDS011;18103;52.246;8.052;2023-07-16T01:48:36;5.73;;;1.70;;
31482;SDS011;18103;52.246;8.052;2023-07-16T01:51:03;6.53;;;1.63;;
31482;SDS011;18103;52.246;8.052;2023-07-16T01:53:28;4.20;;;1.40;;
31482;SDS011;18103;52.246;8.052;2023-07-16T01:55:54;3.10;;;1.50;;
31482;SDS011;18103;52.246;8.052;2023-07-16T01:58:21;9.40;;;2.00;;
31482;SDS011;18103;52.246;8.052;2023-07-16T02:00:49;2.27;;;1.40;;
31482;SDS011;18103;52.246;8.052;2023-07-16T02:03:15;2.30;;;1.20;;
31482;SDS011;18103;52.246;8.052;2023-07-16T02:05:41;3.23;;;1.40;;
31482;SDS011;18103;52.246;8.052;2023-07-16T02:08:06;2.00;;;1.33;;
31482;SDS011;18103;52.246;8.052;2023-07-16T02:10:32;3.73;;;1.63;;
31482;SDS011;18103;52.246;8.052;2023-07-16T02:12:59;2.50;;;1.40;;
31482;SDS011;18103;52.246;8.052;2023-07-16T02:15:25;3.73;;;1.53;;
31482;SDS011;18103;52.246;8.052;2023-07-16T02:17:53;2.30;;;1.87;;
31482;SDS011;18103;52.246;8.052;2023-07-16T02:20:21;7.73;;;1.43;;
31482;SDS011;18103;52.246;8.052;2023-07-16T02:22:47;6.13;;;1.93;;
31482;SDS011;18103;52.246;8.052;2023-07-16T02:25:14;3.73;;;1.77;;
31482;SDS011;18103;52.246;8.052;2023-07-16T02:27:40;7.53;;;2.50;;
31482;SDS011;18103;52.246;8.052;2023-07-16T02:30:05;3.57;;;1.60;;
31482;SDS011;18103;52.246;8.052;2023-07-16T02:32:31;2.73;;;1.30;;
31482;SDS011;18103;52.246;8.052;2023-07-16T02:34:57;3.57;;;1.30;;
31482;SDS011;18103;52.246;8.052;2023-07-16T02:37:23;3.97;;;1.67;;
31482;SDS011;18103;52.246;8.052;2023-07-16T02:39:48;3.27;;;1.50;;
31482;SDS011;18103;52.246;8.052;2023-07-16T02:42:13;4.07;;;1.93;;
31482;SDS011;18103;52.246;8.052;2023-07-16T02:44:39;4.20;;;1.83;;
31482;SDS011;18103;52.246;8.052;2023-07-16T02:47:11;4.97;;;2.00;;
31482;SDS011;18103;52.246;8.052;2023-07-16T02:49:39;3.70;;;1.50;;
31482;SDS011;18103;52.246;8.052;2023-07-16T02:52:05;2.47;;;1.50;;
31482;SDS011;18103;52.246;8.052;2023-07-16T02:54:35;5.83;;;2.00;;
31482;SDS011;18103;52.246;8.052;2023-07-16T02:57:01;4.37;;;1.97;;
31482;SDS011;18103;52.246;8.052;2023-07-16T02:59:27;3.10;;;1.50;;
31482;SDS011;18103;52.246;8.052;2023-07-16T03:01:52;3.37;;;1.83;;
31482;SDS011;18103;52.246;8.052;2023-07-16T03:04:20;5.13;;;2.30;;
31482;SDS011;18103;52.246;8.052;2023-07-16T03:06:45;10.83;;;1.83;;
31482;SDS011;18103;52.246;8.052;2023-07-16T03:09:11;3.50;;;1.77;;
31482;SDS011;18103;52.246;8.052;2023-07-16T03:11:36;7.60;;;2.00;;
31482;SDS011;18103;52.246;8.052;2023-07-16T03:14:02;3.83;;;1.77;;
31482;SDS011;18103;52.246;8.052;2023-07-16T03:16:29;4.97;;;1.57;;
31482;SDS011;18103;52.246;8.052;2023-07-16T03:18:57;4.63;;;1.87;;
31482;SDS011;18103;52.246;8.052;2023-07-16T03:21:22;4.10;;;1.70;;
31482;SDS011;18103;52.246;8.052;2023-07-16T03:23:52;2.30;;;1.40;;
31482;SDS011;18103;52.246;8.052;2023-07-16T03:26:22;7.27;;;1.60;;
31482;SDS011;18103;52.246;8.052;2023-07-16T03:28:49;5.03;;;1.43;;
31482;SDS011;18103;52.246;8.052;2023-07-16T03:31:15;3.47;;;1.60;;
31482;SDS011;18103;52.246;8.052;2023-07-16T03:33:42;5.47;;;2.03;;
31482;SDS011;18103;52.246;8.052;2023-07-16T03:36:08;2.53;;;1.40;;
31482;SDS011;18103;52.246;8.052;2023-07-16T03:38:33;4.30;;;1.63;;
31482;SDS011;18103;52.246;8.052;2023-07-16T03:40:58;7.63;;;2.27;;
31482;SDS011;18103;52.246;8.052;2023-07-16T03:43:24;6.37;;;1.97;;
31482;SDS011;18103;52.246;8.052;2023-07-16T03:45:49;4.50;;;1.47;;
31482;SDS011;18103;52.246;8.052;2023-07-16T03:48:16;3.47;;;1.63;;
31482;SDS011;18103;52.246;8.052;2023-07-16T03:50:42;4.23;;;1.67;;
31482;SDS011;18103;52.246;8.052;2023-07-16T03:53:07;7.70;;;1.87;;
31482;SDS011;18103;52.246;8.052;2023-07-16T03:55:33;6.10;;;1.73;;
31482;SDS011;18103;52.246;8.052;2023-07-16T03:58:01;4.97;;;1.80;;
31482;SDS011;18103;52.246;8.052;2023-07-16T04:00:26;4.57;;;2.23;;
31482;SDS011;18103;52.246;8.052;2023-07-16T04:02:56;5.57;;;1.90;;
31482;SDS011;18103;52.246;8.052;2023-07-16T04:05:22;3.87;;;1.70;;
31482;SDS011;18103;52.246;8.052;2023-07-16T04:07:47;5.60;;;2.10;;
31482;SDS011;18103;52.246;8.052;2023-07-16T04:10:15;5.07;;;2.30;;
31482;SDS011;18103;52.246;8.052;2023-07-16T04:12:42;5.40;;;2.10;;
31482;SDS011;18103;52.246;8.052;2023-07-16T04:15:08;6.07;;;2.20;;
31482;SDS011;18103;52.246;8.052;2023-07-16T04:17:35;10.33;;;2.50;;
31482;SDS011;18103;52.246;8.052;2023-07-16T04:20:03;7.13;;;2.90;;
31482;SDS011;18103;52.246;8.052;2023-07-16T04:22:31;6.97;;;2.53;;
31482;SDS011;18103;52.246;8.052;2023-07-16T04:24:57;5.67;;;2.73;;
31482;SDS011;18103;52.246;8.052;2023-07-16T04:27:23;8.30;;;3.23;;
31482;SDS011;18103;52.246;8.052;2023-07-16T04:29:49;8.00;;;3.07;;
31482;SDS011;18103;52.246;8.052;2023-07-16T04:32:14;13.27;;;3.30;;
31482;SDS011;18103;52.246;8.052;2023-07-16T04:34:40;8.67;;;3.40;;
31482;SDS011;18103;52.246;8.052;2023-07-16T04:37:05;7.73;;;3.30;;
31482;SDS011;18103;52.246;8.052;2023-07-16T04:39:30;4.87;;;2.90;;
31482;SDS011;18103;52.246;8.052;2023-07-16T04:41:58;8.37;;;3.27;;
31482;SDS011;18103;52.246;8.052;2023-07-16T04:44:26;8.00;;;3.50;;
31482;SDS011;18103;52.246;8.052;2023-07-16T04:46:53;13.27;;;3.40;;
31482;SDS011;18103;52.246;8.052;2023-07-16T04:49:21;9.80;;;3.10;;
31482;SDS011;18103;52.246;8.052;2023-07-16T04:51:50;7.23;;;2.70;;
31482;SDS011;18103;52.246;8.052;2023-07-16T04:54:17;5.40;;;2.67;;
31482;SDS011;18103;52.246;8.052;2023-07-16T04:56:47;6.00;;;2.63;;
31482;SDS011;18103;52.246;8.052;2023-07-16T04:59:15;7.93;;;3.20;;
31482;SDS011;18103;52.246;8.052;2023-07-16T05:01:40;9.23;;;2.70;;
31482;SDS011;18103;52.246;8.052;2023-07-16T05:04:11;8.70;;;2.80;;
31482;SDS011;18103;52.246;8.052;2023-07-16T05:06:37;12.53;;;2.63;;
31482;SDS011;18103;52.246;8.052;2023-07-16T05:09:02;10.10;;;2.77;;
31482;SDS011;18103;52.246;8.052;2023-07-16T05:11:32;4.27;;;2.30;;
31482;SDS011;18103;52.246;8.052;2023-07-16T05:14:02;5.50;;;2.40;;
31482;SDS011;18103;52.246;8.052;2023-07-16T05:16:27;9.27;;;3.17;;
31482;SDS011;18103;52.246;8.052;2023-07-16T05:18:58;9.30;;;2.40;;
31482;SDS011;18103;52.246;8.052;2023-07-16T05:21:26;10.47;;;2.37;;
31482;SDS011;18103;52.246;8.052;2023-07-16T05:23:51;7.60;;;1.90;;
31482;SDS011;18103;52.246;8.052;2023-07-16T05:26:16;6.70;;;2.47;;
31482;SDS011;18103;52.246;8.052;2023-07-16T05:28:42;4.03;;;2.00;;
31482;SDS011;18103;52.246;8.052;2023-07-16T05:31:09;8.47;;;2.33;;
31482;SDS011;18103;52.246;8.052;2023-07-16T05:33:35;8.60;;;2.47;;
31482;SDS011;18103;52.246;8.052;2023-07-16T05:36:03;9.50;;;2.40;;
31482;SDS011;18103;52.246;8.052;2023-07-16T05:38:31;5.53;;;2.40;;
31482;SDS011;18103;52.246;8.052;2023-07-16T05:41:01;3.83;;;2.00;;
31482;SDS011;18103;52.246;8.052;2023-07-16T05:43:28;7.30;;;1.80;;
31482;SDS011;18103;52.246;8.052;2023-07-16T05:45:54;5.10;;;2.17;;
31482;SDS011;18103;52.246;8.052;2023-07-16T05:48:19;8.67;;;2.93;;
31482;SDS011;18103;52.246;8.052;2023-07-16T05:50:44;8.60;;;2.30;;
31482;SDS011;18103;52.246;8.052;2023-07-16T05:53:12;4.10;;;2.17;;
31482;SDS011;18103;52.246;8.052;2023-07-16T05:55:40;12.00;;;2.77;;
31482;SDS011;18103;52.246;8.052;2023-07-16T05:58:05;10.97;;;3.07;;
31482;SDS011;18103;52.246;8.052;2023-07-16T06:00:31;7.50;;;2.50;;
31482;SDS011;18103;52.246;8.052;2023-07-16T06:02:59;9.50;;;2.73;;
31482;SDS011;18103;52.246;8.052;2023-07-16T06:05:26;14.63;;;3.60;;
31482;SDS011;18103;52.246;8.052;2023-07-16T06:07:52;7.87;;;3.00;;
31482;SDS011;18103;52.246;8.052;2023-07-16T06:10:19;6.00;;;2.33;;
31482;SDS011;18103;52.246;8.052;2023-07-16T06:12:48;10.17;;;2.73;;
31482;SDS011;18103;52.246;8.052;2023-07-16T06:15:15;8.90;;;2.50;;
31482;SDS011;18103;52.246;8.052;2023-07-16T06:17:43;3.23;;;2.07;;
31482;SDS011;18103;52.246;8.052;2023-07-16T06:20:11;5.80;;;2.83;;
31482;SDS011;18103;52.246;8.052;2023-07-16T06:22:38;9.73;;;2.83;;
31482;SDS011;18103;52.246;8.052;2023-07-16T06:25:06;8.20;;;2.63;;
31482;SDS011;18103;52.246;8.052;2023-07-16T06:27:35;7.73;;;2.60;;
31482;SDS011;18103;52.246;8.052;2023-07-16T06:30:03;10.07;;;2.47;;
31482;SDS011;18103;52.246;8.052;2023-07-16T06:32:32;6.47;;;2.90;;
31482;SDS011;18103;52.246;8.052;2023-07-16T06:34:57;8.50;;;3.07;;
31482;SDS011;18103;52.246;8.052;2023-07-16T06:37:25;10.67;;;3.20;;
31482;SDS011;18103;52.246;8.052;2023-07-16T06:39:50;12.63;;;3.70;;
31482;SDS011;18103;52.246;8.052;2023-07-16T06:42:18;8.67;;;3.47;;
31482;SDS011;18103;52.246;8.052;2023-07-16T06:44:48;8.93;;;3.10;;
31482;SDS011;18103;52.246;8.052;2023-07-16T06:47:14;10.13;;;3.00;;
31482;SDS011;18103;52.246;8.052;2023-07-16T06:49:40;10.17;;;3.37;;
31482;SDS011;18103;52.246;8.052;2023-07-16T06:52:05;6.07;;;2.87;;
31482;SDS011;18103;52.246;8.052;2023-07-16T06:54:31;6.03;;;3.10;;
31482;SDS011;18103;52.246;8.052;2023-07-16T06:56:56;4.60;;;2.43;;
31482;SDS011;18103;52.246;8.052;2023-07-16T06:59:24;5.97;;;2.60;;
31482;SDS011;18103;52.246;8.052;2023-07-16T07:01:49;7.97;;;3.70;;
31482;SDS011;18103;52.246;8.052;2023-07-16T07:04:18;8.90;;;3.53;;
31482;SDS011;18103;52.246;8.052;2023-07-16T07:06:43;8.43;;;3.57;;
31482;SDS011;18103;52.246;8.052;2023-07-16T07:09:09;15.63;;;4.20;;
31482;SDS011;18103;52.246;8.052;2023-07-16T07:11:37;12.73;;;3.40;;
31482;SDS011;18103;52.246;8.052;2023-07-16T07:14:05;8.23;;;3.50;;
31482;SDS011;18103;52.246;8.052;2023-07-16T07:16:30;6.40;;;3.13;;
31482;SDS011;18103;52.246;8.052;2023-07-16T07:18:58;10.10;;;3.63;;
31482;SDS011;18103;52.246;8.052;2023-07-16T07:21:23;10.97;;;3.50;;
31482;SDS011;18103;52.246;8.052;2023-07-16T07:23:51;13.37;;;3.70;;
31482;SDS011;18103;52.246;8.052;2023-07-16T07:26:16;6.83;;;3.13;;
31482;SDS011;18103;52.246;8.052;2023-07-16T07:28:44;16.03;;;3.27;;
31482;SDS011;18103;52.246;8.052;2023-07-16T07:31:12;7.57;;;3.50;;
31482;SDS011;18103;52.246;8.052;2023-07-16T07:33:37;8.27;;;3.50;;
31482;SDS011;18103;52.246;8.052;2023-07-16T07:36:02;7.97;;;3.70;;
31482;SDS011;18103;52.246;8.052;2023-07-16T07:38:30;6.17;;;2.90;;
31482;SDS011;18103;52.246;8.052;2023-07-16T07:41:01;9.03;;;3.53;;
31482;SDS011;18103;52.246;8.052;2023-07-16T07:43:26;7.20;;;3.20;;
31482;SDS011;18103;52.246;8.052;2023-07-16T07:45:52;6.90;;;3.47;;
31482;SDS011;18103;52.246;8.052;2023-07-16T07:48:17;14.07;;;3.40;;
31482;SDS011;18103;52.246;8.052;2023-07-16T07:50:48;9.63;;;2.90;;
31482;SDS011;18103;52.246;8.052;2023-07-16T07:53:16;8.60;;;3.10;;
31482;SDS011;18103;52.246;8.052;2023-07-16T07:55:44;9.50;;;3.60;;
31482;SDS011;18103;52.246;8.052;2023-07-16T07:58:12;8.27;;;2.63;;
31482;SDS011;18103;52.246;8.052;2023-07-16T08:00:38;10.13;;;2.67;;
31482;SDS011;18103;52.246;8.052;2023-07-16T08:03:03;5.37;;;2.67;;
31482;SDS011;18103;52.246;8.052;2023-07-16T08:05:29;4.03;;;2.80;;
31482;SDS011;18103;52.246;8.052;2023-07-16T08:07:58;6.33;;;2.60;;
31482;SDS011;18103;52.246;8.052;2023-07-16T08:10:23;13.77;;;3.30;;
31482;SDS011;18103;52.246;8.052;2023-07-16T08:12:49;9.30;;;2.87;;
31482;SDS011;18103;52.246;8.052;2023-07-16T08:15:14;4.77;;;2.50;;
31482;SDS011;18103;52.246;8.052;2023-07-16T08:17:43;6.10;;;3.10;;
31482;SDS011;18103;52.246;8.052;2023-07-16T08:20:13;9.90;;;3.30;;
31482;SDS011;18103;52.246;8.052;2023-07-16T08:22:38;7.80;;;3.13;;
31482;SDS011;18103;52.246;8.052;2023-07-16T08:25:06;7.77;;;2.80;;
31482;SDS011;18103;52.246;8.052;2023-07-16T08:27:34;11.17;;;2.83;;
31482;SDS011;18103;52.246;8.052;2023-07-16T08:30:02;7.47;;;2.93;;
31482;SDS011;18103;52.246;8.052;2023-07-16T08:32:30;7.73;;;3.40;;
31482;SDS011;18103;52.246;8.052;2023-07-16T08:34:58;7.63;;;2.90;;
31482;SDS011;18103;52.246;8.052;2023-07-16T08:37:23;8.83;;;2.90;;
31482;SDS011;18103;52.246;8.052;2023-07-16T08:39:52;14.83;;;3.00;;
31482;SDS011;18103;52.246;8.052;2023-07-16T08:42:21;9.47;;;3.40;;
31482;SDS011;18103;52.246;8.052;2023-07-16T08:44:49;7.40;;;2.90;;
31482;SDS011;18103;52.246;8.052;2023-07-16T08:47:15;7.90;;;3.00;;
31482;SDS011;18103;52.246;8.052;2023-07-16T08:49:53;5.97;;;2.87;;
31482;SDS011;18103;52.246;8.052;2023-07-16T08:52:20;8.30;;;3.00;;
31482;SDS011;18103;52.246;8.052;2023-07-16T08:54:45;5.77;;;2.73;;
31482;SDS011;18103;52.246;8.052;2023-07-16T08:57:12;5.57;;;3.33;;
31482;SDS011;18103;52.246;8.052;2023-07-16T08:59:38;7.67;;;2.87;;
31482;SDS011;18103;52.246;8.052;2023-07-16T09:02:04;10.17;;;2.90;;
31482;SDS011;18103;52.246;8.052;2023-07-16T09:04:34;4.57;;;2.40;;
31482;SDS011;18103;52.246;8.052;2023-07-16T09:07:02;5.33;;;2.77;;
31482;SDS011;18103;52.246;8.052;2023-07-16T09:09:30;8.33;;;2.77;;
31482;SDS011;18103;52.246;8.052;2023-07-16T09:11:55;6.63;;;2.63;;
31482;SDS011;18103;52.246;8.052;2023-07-16T09:14:23;6.60;;;2.57;;
31482;SDS011;18103;52.246;8.052;2023-07-16T09:16:52;7.50;;;2.43;;
31482;SDS011;18103;52.246;8.052;2023-07-16T09:19:24;7.40;;;3.10;;
31482;SDS011;18103;52.246;8.052;2023-07-16T09:21:50;8.77;;;3.17;;
31482;SDS011;18103;52.246;8.052;2023-07-16T09:24:17;4.67;;;2.90;;
31482;SDS011;18103;52.246;8.052;2023-07-16T09:26:47;4.80;;;2.60;;
31482;SDS011;18103;52.246;8.052;2023-07-16T09:29:13;5.70;;;2.70;;
31482;SDS011;18103;52.246;8.052;2023-07-16T09:31:50;6.63;;;2.97;;
31482;SDS011;18103;52.246;8.052;2023-07-16T09:34:19;10.07;;;2.60;;
31482;SDS011;18103;52.246;8.052;2023-07-16T09:36:50;4.53;;;2.50;;
31482;SDS011;18103;52.246;8.052;2023-07-16T09:39:18;9.67;;;2.83;;
31482;SDS011;18103;52.246;8.052;2023-07-16T09:41:47;5.73;;;2.60;;
31482;SDS011;18103;52.246;8.052;2023-07-16T09:44:18;8.63;;;2.97;;
31482;SDS011;18103;52.246;8.052;2023-07-16T09:46:47;5.63;;;2.67;;
31482;SDS011;18103;52.246;8.052;2023-07-16T09:49:15;10.10;;;3.03;;
31482;SDS011;18103;52.246;8.052;2023-07-16T09:51:40;7.70;;;2.70;;
31482;SDS011;18103;52.246;8.052;2023-07-16T09:54:12;15.70;;;3.03;;
31482;SDS011;18103;52.246;8.052;2023-07-16T09:56:40;7.43;;;2.97;;
31482;SDS011;18103;52.246;8.052;2023-07-16T09:59:11;9.97;;;3.20;;
31482;SDS011;18103;52.246;8.052;2023-07-16T10:01:41;5.90;;;2.70;;
31482;SDS011;18103;52.246;8.052;2023-07-16T10:04:17;6.87;;;2.70;;
31482;SDS011;18103;52.246;8.052;2023-07-16T10:09:37;7.90;;;3.50;;
31482;SDS011;18103;52.246;8.052;2023-07-16T10:12:16;8.73;;;2.87;;
31482;SDS011;18103;52.246;8.052;2023-07-16T10:14:43;7.03;;;3.10;;
31482;SDS011;18103;52.246;8.052;2023-07-16T10:22:46;5.57;;;2.57;;
31482;SDS011;18103;52.246;8.052;2023-07-16T10:27:47;5.47;;;2.20;;
31482;SDS011;18103;52.246;8.052;2023-07-16T10:30:17;3.87;;;2.10;;
31482;SDS011;18103;52.246;8.052;2023-07-16T10:32:43;6.40;;;2.60;;
31482;SDS011;18103;52.246;8.052;2023-07-16T10:35:12;7.67;;;2.47;;
31482;SDS011;18103;52.246;8.052;2023-07-16T10:37:38;8.57;;;2.73;;
31482;SDS011;18103;52.246;8.052;2023-07-16T10:40:09;10.23;;;2.43;;
31482;SDS011;18103;52.246;8.052;2023-07-16T10:42:35;6.33;;;2.67;;
31482;SDS011;18103;52.246;8.052;2023-07-16T10:45:04;7.73;;;2.57;;
31482;SDS011;18103;52.246;8.052;2023-07-16T10:47:36;6.93;;;2.37;;
31482;SDS011;18103;52.246;8.052;2023-07-16T10:50:06;7.50;;;2.70;;
31482;SDS011;18103;52.246;8.052;2023-07-16T10:52:36;4.43;;;2.53;;
31482;SDS011;18103;52.246;8.052;2023-07-16T10:55:04;10.53;;;3.13;;
31482;SDS011;18103;52.246;8.052;2023-07-16T10:57:32;5.67;;;2.40;;
31482;SDS011;18103;52.246;8.052;2023-07-16T11:00:00;9.50;;;2.97;;
31482;SDS011;18103;52.246;8.052;2023-07-16T11:02:26;7.13;;;2.90;;
31482;SDS011;18103;52.246;8.052;2023-07-16T11:04:56;6.23;;;2.40;;
31482;SDS011;18103;52.246;8.052;2023-07-16T11:07:27;7.57;;;3.03;;
31482;SDS011;18103;52.246;8.052;2023-07-16T11:09:55;10.20;;;3.20;;
31482;SDS011;18103;52.246;8.052;2023-07-16T11:12:21;6.57;;;2.73;;
31482;SDS011;18103;52.246;8.052;2023-07-16T11:14:48;7.77;;;2.87;;
31482;SDS011;18103;52.246;8.052;2023-07-16T11:17:17;6.10;;;3.30;;
31482;SDS011;18103;52.246;8.052;2023-07-16T11:19:47;9.40;;;2.83;;
31482;SDS011;18103;52.246;8.052;2023-07-16T11:22:17;6.57;;;2.90;;
31482;SDS011;18103;52.246;8.052;2023-07-16T11:29:45;9.57;;;2.93;;
31482;SDS011;18103;52.246;8.052;2023-07-16T11:32:37;8.13;;;2.80;;
31482;SDS011;18103;52.246;8.052;2023-07-16T11:35:05;7.53;;;2.70;;
31482;SDS011;18103;52.246;8.052;2023-07-16T11:37:35;6.83;;;2.83;;
31482;SDS011;18103;52.246;8.052;2023-07-16T11:42:33;6.07;;;2.87;;
31482;SDS011;18103;52.246;8.052;2023-07-16T11:45:03;6.03;;;2.73;;
31482;SDS011;18103;52.246;8.052;2023-07-16T11:47:31;6.13;;;2.83;;
31482;SDS011;18103;52.246;8.052;2023-07-16T11:50:01;5.03;;;2.63;;
31482;SDS011;18103;52.246;8.052;2023-07-16T11:52:27;4.70;;;2.60;;
31482;SDS011;18103;52.246;8.052;2023-07-16T11:54:54;6.53;;;2.40;;
31482;SDS011;18103;52.246;8.052;2023-07-16T11:57:24;3.07;;;2.33;;
31482;SDS011;18103;52.246;8.052;2023-07-16T11:59:49;9.23;;;3.13;;
31482;SDS011;18103;52.246;8.052;2023-07-16T12:02:19;10.73;;;2.90;;
31482;SDS011;18103;52.246;8.052;2023-07-16T12:04:45;6.43;;;2.60;;
31482;SDS011;18103;52.246;8.052;2023-07-16T12:07:13;9.47;;;2.83;;
31482;SDS011;18103;52.246;8.052;2023-07-16T12:09:38;10.70;;;2.67;;
31482;SDS011;18103;52.246;8.052;2023-07-16T12:12:04;4.47;;;2.67;;
31482;SDS011;18103;52.246;8.052;2023-07-16T12:14:30;7.80;;;2.43;;
31482;SDS011;18103;52.246;8.052;2023-07-16T12:16:58;8.27;;;3.03;;
31482;SDS011;18103;52.246;8.052;2023-07-16T12:19:24;5.17;;;2.80;;
31482;SDS011;18103;52.246;8.052;2023-07-16T12:21:52;4.97;;;2.60;;
31482;SDS011;18103;52.246;8.052;2023-07-16T12:24:19;5.60;;;2.50;;
31482;SDS011;18103;52.246;8.052;2023-07-16T12:26:47;5.53;;;2.60;;
31482;SDS011;18103;52.246;8.052;2023-07-16T12:29:12;5.17;;;2.37;;
31482;SDS011;18103;52.246;8.052;2023-07-16T12:31:40;9.27;;;2.93;;
31482;SDS011;18103;52.246;8.052;2023-07-16T12:34:05;5.33;;;2.33;;
31482;SDS011;18103;52.246;8.052;2023-07-16T12:36:31;4.03;;;2.47;;
31482;SDS011;18103;52.246;8.052;2023-07-16T12:38:59;8.90;;;2.80;;
31482;SDS011;18103;52.246;8.052;2023-07-16T12:41:27;7.43;;;2.90;;
31482;SDS011;18103;52.246;8.052;2023-07-16T12:43:52;4.70;;;2.70;;
31482;SDS011;18103;52.246;8.052;2023-07-16T12:46:20;6.17;;;2.07;;
31482;SDS011;18103;52.246;8.052;2023-07-16T12:48:48;4.30;;;2.73;;
31482;SDS011;18103;52.246;8.052;2023-07-16T12:51:15;4.43;;;2.43;;
31482;SDS011;18103;52.246;8.052;2023-07-16T12:53:43;7.87;;;2.53;;
31482;SDS011;18103;52.246;8.052;2023-07-16T12:56:09;8.20;;;2.57;;
31482;SDS011;18103;52.246;8.052;2023-07-16T12:58:37;16.03;;;2.73;;
31482;SDS011;18103;52.246;8.052;2023-07-16T13:01:02;6.50;;;2.50;;
31482;SDS011;18103;52.246;8.052;2023-07-16T13:03:27;6.70;;;2.33;;
31482;SDS011;18103;52.246;8.052;2023-07-16T13:05:53;5.20;;;2.60;;
31482;SDS011;18103;52.246;8.052;2023-07-16T13:08:23;3.57;;;2.10;;
31482;SDS011;18103;52.246;8.052;2023-07-16T13:10:49;7.73;;;2.43;;
31482;SDS011;18103;52.246;8.052;2023-07-16T13:13:19;4.67;;;2.03;;
31482;SDS011;18103;52.246;8.052;2023-07-16T13:15:44;4.47;;;2.47;;
31482;SDS011;18103;52.246;8.052;2023-07-16T13:18:12;4.23;;;2.27;;
31482;SDS011;18103;52.246;8.052;2023-07-16T13:20:41;5.50;;;2.67;;
31482;SDS011;18103;52.246;8.052;2023-07-16T13:23:07;4.67;;;2.90;;
31482;SDS011;18103;52.246;8.052;2023-07-16T13:25:33;9.33;;;2.63;;
31482;SDS011;18103;52.246;8.052;2023-07-16T13:28:03;7.20;;;2.60;;
31482;SDS011;18103;52.246;8.052;2023-07-16T13:30:34;5.80;;;2.90;;
31482;SDS011;18103;52.246;8.052;2023-07-16T13:33:04;5.93;;;3.00;;
31482;SDS011;18103;52.246;8.052;2023-07-16T13:35:33;6.37;;;2.53;;
31482;SDS011;18103;52.246;8.052;2023-07-16T13:37:59;6.93;;;2.83;;
31482;SDS011;18103;52.246;8.052;2023-07-16T13:40:24;6.33;;;2.20;;
31482;SDS011;18103;52.246;8.052;2023-07-16T13:42:52;4.63;;;2.30;;
31482;SDS011;18103;52.246;8.052;2023-07-16T13:45:18;8.73;;;3.07;;
31482;SDS011;18103;52.246;8.052;2023-07-16T13:47:44;7.17;;;3.37;;
31482;SDS011;18103;52.246;8.052;2023-07-16T13:50:10;3.90;;;2.30;;
31482;SDS011;18103;52.246;8.052;2023-07-16T13:52:37;7.10;;;3.00;;
31482;SDS011;18103;52.246;8.052;2023-07-16T13:55:05;8.00;;;2.40;;
31482;SDS011;18103;52.246;8.052;2023-07-16T13:57:31;7.57;;;2.53;;
31482;SDS011;18103;52.246;8.052;2023-07-16T13:59:56;5.07;;;2.63;;
31482;SDS011;18103;52.246;8.052;2023-07-16T14:02:22;5.97;;;2.60;;
31482;SDS011;18103;52.246;8.052;2023-07-16T14:04:47;6.77;;;2.17;;
31482;SDS011;18103;52.246;8.052;2023-07-16T14:07:15;5.80;;;2.57;;
31482;SDS011;18103;52.246;8.052;2023-07-16T14:09:43;10.33;;;2.83;;
31482;SDS011;18103;52.246;8.052;2023-07-16T14:12:11;5.10;;;2.53;;
31482;SDS011;18103;52.246;8.052;2023-07-16T14:14:42;10.57;;;3.10;;
31482;SDS011;18103;52.246;8.052;2023-07-16T14:17:07;8.43;;;2.57;;
31482;SDS011;18103;52.246;8.052;2023-07-16T14:19:35;8.53;;;2.60;;
31482;SDS011;18103;52.246;8.052;2023-07-16T14:22:03;8.27;;;2.80;;
31482;SDS011;18103;52.246;8.052;2023-07-16T14:24:29;10.40;;;3.20;;
31482;SDS011;18103;52.246;8.052;2023-07-16T14:26:58;5.00;;;1.93;;
31482;SDS011;18103;52.246;8.052;2023-07-16T14:29:27;5.63;;;2.63;;
31482;SDS011;18103;52.246;8.052;2023-07-16T14:31:54;8.50;;;3.07;;
31482;SDS011;18103;52.246;8.052;2023-07-16T14:34:22;5.70;;;2.63;;
31482;SDS011;18103;52.246;8.052;2023-07-16T14:36:50;5.57;;;3.07;;
31482;SDS011;18103;52.246;8.052;2023-07-16T14:39:15;8.07;;;3.03;;
31482;SDS011;18103;52.246;8.052;2023-07-16T14:41:40;9.43;;;2.80;;
31482;SDS011;18103;52.246;8.052;2023-07-16T14:44:06;6.83;;;2.73;;
31482;SDS011;18103;52.246;8.052;2023-07-16T14:46:31;7.73;;;2.87;;
31482;SDS011;18103;52.246;8.052;2023-07-16T14:48:56;7.20;;;2.30;;
31482;SDS011;18103;52.246;8.052;2023-07-16T14:51:24;5.37;;;2.67;;
31482;SDS011;18103;52.246;8.052;2023-07-16T14:53:50;9.93;;;2.63;;
31482;SDS011;18103;52.246;8.052;2023-07-16T14:56:17;4.87;;;2.47;;
31482;SDS011;18103;52.246;8.052;2023-07-16T14:58:43;5.10;;;2.27;;
31482;SDS011;18103;52.246;8.052;2023-07-16T15:01:09;4.00;;;2.17;;
31482;SDS011;18103;52.246;8.052;2023-07-16T15:03:37;6.10;;;2.03;;
31482;SDS011;18103;52.246;8.052;2023-07-16T15:06:05;3.93;;;2.07;;
31482;SDS011;18103;52.246;8.052;2023-07-16T15:08:31;4.17;;;2.10;;
31482;SDS011;18103;52.246;8.052;2023-07-16T15:10:58;3.37;;;1.70;;
31482;SDS011;18103;52.246;8.052;2023-07-16T15:13:24;7.40;;;2.20;;